Time,TemperatureF,DewpointF,PressureIn,WindDirection,WindDirectionDegrees,WindSpeedMPH,WindSpeedGustMPH,Humidity,HourlyPrecipIn,Conditions,Clouds,dailyrainin,SoftwareType,DateUTC
2013-02-07 00:00:00,30.4,5.9,30.12,NW,325,1.0,5.0,35,0.00,CLR,CLR,0.00,WeatherDisplay:10.37,2013-02-07 00:00:00,
2013-02-07 00:10:00,30.4,6.6,30.12,NNW,334,0.0,4.0,36,0.00,CLR,CLR,0.00,WeatherDisplay:10.37,2013-02-07 00:10:00,
2013-02-07 00:15:00,30.2,6.4,30.12,NNW,330,1.0,4.0,36,0.00,CLR,CLR,0.00,WeatherDisplay:10.37,2013-02-07 00:15:00,
2013-02-07 00:20:00,30.0,6.2,30.12,NW,313,0.0,0.0,36,0.00,CLR,CLR,0.00,WeatherDisplay:10.37,2013-02-07 00:20:00,
2013-02-07 00:25:00,29.8,6.1,30.12,WNW,299,0.0,0.0,36,0.00,CLR,CLR,0.00,WeatherDisplay:10.37,2013-02-07 00:25:00,
2013-02-07 00:30:00,29.5,5.8,30.12,West,277,0.0,3.0,36,0.00,CLR,CLR,0.00,WeatherDisplay:10.37,2013-02-07 00:30:00,
2013-02-07 00:40:00,29.5,6.4,30.12,WNW,292,0.0,0.0,37,0.00,CLR,CLR,0.00,WeatherDisplay:10.37,2013-02-07 00:40:00,
2013-02-07 00:45:00,29.3,6.2,30.12,WNW,299,0.0,0.0,37,0.00,CLR,CLR,0.00,WeatherDisplay:10.37,2013-02-07 00:45:00,
2013-02-07 00:50:00,29.3,6.2,30.12,NW,305,0.0,0.0,37,0.00,CLR,CLR,0.00,WeatherDisplay:10.37,2013-02-07 00:50:00,
2013-02-07 00:55:00,29.1,6.0,30.12,NW,306,0.0,0.0,37,0.00,CLR,CLR,0.00,WeatherDisplay:10.37,2013-02-07 00:55:00,
2013-02-07 01:00:00,28.9,5.9,30.12,NW,307,0.0,0.0,37,0.00,CLR,CLR,0.00,WeatherDisplay:10.37,2013-02-07 01:00:00,
2013-02-07 01:05:00,28.8,5.7,30.12,NW,307,0.0,0.0,37,0.00,CLR,CLR,0.00,WeatherDisplay:10.37,2013-02-07 01:05:00,
2013-02-07 01:10:00,28.8,5.7,30.12,NW,307,0.0,4.0,37,0.00,CLR,CLR,0.00,WeatherDisplay:10.37,2013-02-07 01:10:00,
2013-02-07 01:15:00,28.7,6.3,30.12,NW,308,0.0,6.0,38,0.00,CLR,CLR,0.00,WeatherDisplay:10.37,2013-02-07 01:15:00,
2013-02-07 01:20:00,28.8,6.3,30.12,NW,310,1.0,3.0,38,0.00,CLR,CLR,0.00,WeatherDisplay:10.37,2013-02-07 01:20:00,
2013-02-07 01:25:00,28.8,6.9,30.12,WNW,301,3.0,6.0,39,0.00,CLR,CLR,0.00,WeatherDisplay:10.37,2013-02-07 01:25:00,
2013-02-07 01:30:00,29.1,7.8,30.12,WNW,301,5.0,8.0,40,0.00,CLR,CLR,0.00,WeatherDisplay:10.37,2013-02-07 01:30:00,
2013-02-07 01:40:00,29.5,8.6,30.12,WNW,293,5.0,9.0,41,0.00,CLR,CLR,0.00,WeatherDisplay:10.37,2013-02-07 01:40:00,
2013-02-07 01:45:00,29.7,8.8,30.12,WNW,296,1.0,6.0,41,0.00,CLR,CLR,0.00,WeatherDisplay:10.37,2013-02-07 01:45:00,
2013-02-07 01:50:00,29.8,9.0,30.12,WNW,293,5.0,9.0,41,0.00,CLR,CLR,0.00,WeatherDisplay:10.37,2013-02-07 01:50:00,
2013-02-07 01:55:00,30.0,9.1,30.12,WNW,291,5.0,6.0,41,0.00,CLR,CLR,0.00,WeatherDisplay:10.37,2013-02-07 01:55:00,
2013-02-07 02:00:00,30.2,9.8,30.12,WNW,299,5.0,6.0,42,0.00,CLR,CLR,0.00,WeatherDisplay:10.37,2013-02-07 02:00:00,
2013-02-07 02:10:00,30.2,9.8,30.12,WNW,296,3.0,6.0,42,0.00,CLR,CLR,0.00,WeatherDisplay:10.37,2013-02-07 02:10:00,
2013-02-07 02:15:00,30.2,9.8,30.12,WNW,298,0.0,6.0,42,0.00,CLR,CLR,0.00,WeatherDisplay:10.37,2013-02-07 02:15:00,
2013-02-07 02:20:00,30.2,9.8,30.09,WNW,303,3.0,5.0,42,0.00,CLR,CLR,0.00,WeatherDisplay:10.37,2013-02-07 02:20:00,
2013-02-07 02:25:00,30.2,9.8,30.09,WNW,302,0.0,2.0,42,0.00,CLR,CLR,0.00,WeatherDisplay:10.37,2013-02-07 02:25:00,
2013-02-07 02:30:00,30.1,9.7,30.09,WNW,302,0.0,0.0,42,0.00,CLR,CLR,0.00,WeatherDisplay:10.37,2013-02-07 02:30:00,
2013-02-07 02:35:00,30.0,9.7,30.09,WNW,292,0.0,0.0,42,0.00,CLR,CLR,0.00,WeatherDisplay:10.37,2013-02-07 02:35:00,
2013-02-07 02:40:00,30.2,9.8,30.09,West,277,1.0,4.0,42,0.00,CLR,CLR,0.00,WeatherDisplay:10.37,2013-02-07 02:40:00,
2013-02-07 02:50:00,30.4,10.0,30.09,NW,308,0.0,0.0,42,0.00,CLR,CLR,0.00,WeatherDisplay:10.37,2013-02-07 02:50:00,
2013-02-07 02:55:00,30.4,10.0,30.09,WNW,298,0.0,0.0,42,0.00,CLR,CLR,0.00,WeatherDisplay:10.37,2013-02-07 02:55:00,
2013-02-07 03:00:00,30.6,10.2,30.09,NW,305,0.0,0.0,42,0.00,CLR,CLR,0.00,WeatherDisplay:10.37,2013-02-07 03:00:00,
2013-02-07 03:05:00,30.4,10.0,30.09,WNW,302,0.0,0.0,42,0.00,CLR,CLR,0.00,WeatherDisplay:10.37,2013-02-07 03:05:00,
2013-02-07 03:10:00,30.3,10.4,30.09,West,259,0.0,0.0,43,0.00,CLR,CLR,0.00,WeatherDisplay:10.37,2013-02-07 03:10:00,
2013-02-07 03:15:00,30.2,10.4,30.09,SW,222,0.0,0.0,43,0.00,CLR,CLR,0.00,WeatherDisplay:10.37,2013-02-07 03:15:00,
2013-02-07 03:20:00,30.2,10.4,30.09,SW,234,1.0,4.0,43,0.00,CLR,CLR,0.00,WeatherDisplay:10.37,2013-02-07 03:20:00,
2013-02-07 03:25:00,30.4,10.5,30.09,WSW,237,0.0,3.0,43,0.00,CLR,CLR,0.00,WeatherDisplay:10.37,2013-02-07 03:25:00,
2013-02-07 03:30:00,30.4,10.5,30.09,SW,224,3.0,6.0,43,0.00,CLR,CLR,0.00,WeatherDisplay:10.37,2013-02-07 03:30:00,
2013-02-07 03:35:00,30.6,10.7,30.09,WSW,257,0.0,5.0,43,0.00,CLR,CLR,0.00,WeatherDisplay:10.37,2013-02-07 03:35:00,
2013-02-07 03:40:00,30.5,10.6,30.09,West,276,0.0,3.0,43,0.00,CLR,CLR,0.00,WeatherDisplay:10.37,2013-02-07 03:40:00,
2013-02-07 03:45:00,30.4,10.5,30.09,West,268,0.0,3.0,43,0.00,CLR,CLR,0.00,WeatherDisplay:10.37,2013-02-07 03:45:00,
2013-02-07 03:50:00,30.4,10.5,30.09,WSW,247,0.0,0.0,43,0.00,CLR,CLR,0.00,WeatherDisplay:10.37,2013-02-07 03:50:00,
2013-02-07 03:55:00,30.4,10.5,30.09,WSW,251,0.0,0.0,43,0.00,CLR,CLR,0.00,WeatherDisplay:10.37,2013-02-07 03:55:00,
2013-02-07 04:00:00,30.2,10.9,30.09,West,279,0.0,0.0,44,0.00,CLR,CLR,0.00,WeatherDisplay:10.37,2013-02-07 04:00:00,
2013-02-07 04:05:00,30.2,10.9,30.09,WNW,291,0.0,0.0,44,0.00,CLR,CLR,0.00,WeatherDisplay:10.37,2013-02-07 04:05:00,
2013-02-07 04:10:00,30.2,10.9,30.09,West,279,1.0,4.0,44,0.00,CLR,CLR,0.00,WeatherDisplay:10.37,2013-02-07 04:10:00,
2013-02-07 04:15:00,30.2,10.9,30.09,West,268,0.0,3.0,44,0.00,CLR,CLR,0.00,WeatherDisplay:10.37,2013-02-07 04:15:00,
2013-02-07 04:20:00,30.2,10.9,30.09,West,274,0.0,0.0,44,0.00,CLR,CLR,0.00,WeatherDisplay:10.37,2013-02-07 04:20:00,
2013-02-07 04:25:00,30.2,10.9,30.09,WNW,285,0.0,0.0,44,0.00,CLR,CLR,0.00,WeatherDisplay:10.37,2013-02-07 04:25:00,
2013-02-07 04:30:00,30.4,11.0,30.09,West,276,0.0,0.0,44,0.00,CLR,CLR,0.00,WeatherDisplay:10.37,2013-02-07 04:30:00,
2013-02-07 04:40:00,30.2,11.4,30.09,WSW,252,0.0,0.0,45,0.00,CLR,CLR,0.00,WeatherDisplay:10.37,2013-02-07 04:40:00,
2013-02-07 04:45:00,30.4,11.0,30.09,West,260,0.0,0.0,44,0.00,CLR,CLR,0.00,WeatherDisplay:10.37,2013-02-07 04:45:00,
2013-02-07 04:50:00,30.4,11.0,30.09,WNW,285,3.0,4.0,44,0.00,CLR,CLR,0.00,WeatherDisplay:10.37,2013-02-07 04:50:00,
2013-02-07 04:55:00,30.4,11.5,30.09,WNW,291,3.0,6.0,45,0.00,CLR,CLR,0.00,WeatherDisplay:10.37,2013-02-07 04:55:00,
2013-02-07 05:00:00,30.4,11.5,30.09,WNW,291,0.0,3.0,45,0.00,CLR,CLR,0.00,WeatherDisplay:10.37,2013-02-07 05:00:00,
2013-02-07 05:05:00,30.4,11.5,30.09,WNW,301,3.0,6.0,45,0.00,CLR,CLR,0.00,WeatherDisplay:10.37,2013-02-07 05:05:00,
2013-02-07 05:10:00,30.6,11.7,30.09,NW,314,0.0,3.0,45,0.00,CLR,CLR,0.00,WeatherDisplay:10.37,2013-02-07 05:10:00,
2013-02-07 05:15:00,30.6,11.7,30.09,NW,315,0.0,0.0,45,0.00,CLR,CLR,0.00,WeatherDisplay:10.37,2013-02-07 05:15:00,
2013-02-07 05:20:00,30.6,11.7,30.09,NW,313,0.0,0.0,45,0.00,CLR,CLR,0.00,WeatherDisplay:10.37,2013-02-07 05:20:00,
2013-02-07 05:25:00,30.6,11.7,30.09,WNW,299,0.0,0.0,45,0.00,CLR,CLR,0.00,WeatherDisplay:10.37,2013-02-07 05:25:00,
2013-02-07 05:30:00,30.6,11.7,30.09,WNW,291,0.0,4.0,45,0.00,CLR,CLR,0.00,WeatherDisplay:10.37,2013-02-07 05:30:00,
2013-02-07 05:40:00,30.7,12.4,30.06,WNW,296,0.0,0.0,46,0.00,CLR,CLR,0.00,WeatherDisplay:10.37,2013-02-07 05:40:00,
2013-02-07 05:45:00,30.7,12.4,30.06,NW,311,0.0,0.0,46,0.00,CLR,CLR,0.00,WeatherDisplay:10.37,2013-02-07 05:45:00,
2013-02-07 05:50:00,30.7,12.4,30.06,WNW,282,0.0,0.0,46,0.00,CLR,CLR,0.00,WeatherDisplay:10.37,2013-02-07 05:50:00,
2013-02-07 05:55:00,30.7,12.4,30.06,WSW,247,0.0,0.0,46,0.00,CLR,CLR,0.00,WeatherDisplay:10.37,2013-02-07 05:55:00,
2013-02-07 06:00:00,30.6,12.2,30.06,WSW,250,0.0,0.0,46,0.00,CLR,CLR,0.00,WeatherDisplay:10.37,2013-02-07 06:00:00,
2013-02-07 06:10:00,30.6,12.2,30.06,West,269,0.0,0.0,46,0.00,CLR,CLR,0.00,WeatherDisplay:10.37,2013-02-07 06:10:00,
2013-02-07 06:15:00,30.6,12.2,30.06,West,277,0.0,0.0,46,0.00,CLR,CLR,0.00,WeatherDisplay:10.37,2013-02-07 06:15:00,
2013-02-07 06:20:00,30.4,12.0,30.06,West,277,0.0,0.0,46,0.00,CLR,CLR,0.00,WeatherDisplay:10.37,2013-02-07 06:20:00,
2013-02-07 06:25:00,30.4,12.0,30.06,West,277,0.0,0.0,46,0.00,CLR,CLR,0.00,WeatherDisplay:10.37,2013-02-07 06:25:00,
2013-02-07 06:35:00,30.2,12.4,30.06,West,277,0.0,0.0,47,0.00,CLR,CLR,0.00,WeatherDisplay:10.37,2013-02-07 06:35:00,
2013-02-07 06:40:00,30.2,12.4,30.06,West,277,0.0,0.0,47,0.00,CLR,CLR,0.00,WeatherDisplay:10.37,2013-02-07 06:40:00,
2013-02-07 06:45:00,30.0,12.2,30.06,West,277,0.0,0.0,47,0.00,CLR,CLR,0.00,WeatherDisplay:10.37,2013-02-07 06:45:00,
2013-02-07 06:50:00,29.8,12.0,30.06,WSW,247,0.0,0.0,47,0.00,CLR,CLR,0.00,WeatherDisplay:10.37,2013-02-07 06:50:00,
2013-02-07 06:55:00,29.8,12.0,30.06,SE,140,2.0,4.0,47,0.00,CLR,CLR,0.00,WeatherDisplay:10.37,2013-02-07 06:55:00,
2013-02-07 07:00:00,29.8,12.0,30.06,SE,125,2.0,4.0,47,0.00,CLR,CLR,0.00,WeatherDisplay:10.37,2013-02-07 07:00:00,
2013-02-07 07:05:00,29.8,12.0,30.06,ESE,122,0.0,4.0,47,0.00,CLR,CLR,0.00,WeatherDisplay:10.37,2013-02-07 07:05:00,
2013-02-07 07:10:00,29.8,12.0,30.06,SE,130,0.0,0.0,47,0.00,CLR,CLR,0.00,WeatherDisplay:10.37,2013-02-07 07:10:00,
2013-02-07 07:15:00,29.7,12.3,30.06,SSE,168,0.0,0.0,48,0.00,CLR,CLR,0.00,WeatherDisplay:10.37,2013-02-07 07:15:00,
2013-02-07 07:20:00,29.7,12.3,30.06,South,177,0.0,0.0,48,0.00,CLR,CLR,0.00,WeatherDisplay:10.37,2013-02-07 07:20:00,
2013-02-07 07:25:00,29.7,12.3,30.06,South,177,0.0,0.0,48,0.00,CLR,CLR,0.00,WeatherDisplay:10.37,2013-02-07 07:25:00,
2013-02-07 07:30:00,29.7,12.3,30.06,South,177,0.0,0.0,48,0.00,CLR,CLR,0.00,WeatherDisplay:10.37,2013-02-07 07:30:00,
2013-02-07 07:35:00,29.5,12.2,30.03,South,183,0.0,0.0,48,0.00,CLR,CLR,0.00,WeatherDisplay:10.37,2013-02-07 07:35:00,
2013-02-07 07:40:00,29.5,12.2,30.03,SSW,192,0.0,0.0,48,0.00,CLR,CLR,0.00,WeatherDisplay:10.37,2013-02-07 07:40:00,
2013-02-07 07:50:00,29.5,12.2,30.03,SSW,195,0.0,0.0,48,0.00,CLR,CLR,0.00,WeatherDisplay:10.37,2013-02-07 07:50:00,
2013-02-07 07:55:00,29.7,12.8,30.03,SSW,194,0.0,0.0,49,0.00,CLR,CLR,0.00,WeatherDisplay:10.37,2013-02-07 07:55:00,
2013-02-07 08:05:00,29.8,13.0,30.03,SSW,192,0.0,0.0,49,0.00,CLR,CLR,0.00,WeatherDisplay:10.37,2013-02-07 08:05:00,
2013-02-07 08:10:00,30.0,13.1,30.03,South,191,0.0,0.0,49,0.00,CLR,CLR,0.00,WeatherDisplay:10.37,2013-02-07 08:10:00,
2013-02-07 08:20:00,30.4,13.5,30.03,South,190,0.0,2.0,49,0.00,CLR,CLR,0.00,WeatherDisplay:10.37,2013-02-07 08:20:00,
2013-02-07 08:25:00,30.4,13.5,30.03,SSW,192,0.0,0.0,49,0.00,CLR,CLR,0.00,WeatherDisplay:10.37,2013-02-07 08:25:00,
2013-02-07 08:35:00,30.6,14.1,30.03,South,190,0.0,0.0,50,0.00,CLR,CLR,0.00,WeatherDisplay:10.37,2013-02-07 08:35:00,
2013-02-07 08:45:00,30.9,14.4,30.03,SE,133,0.0,0.0,50,0.00,CLR,CLR,0.00,WeatherDisplay:10.37,2013-02-07 08:45:00,
2013-02-07 08:50:00,31.1,14.6,30.03,SE,133,0.0,0.0,50,0.00,CLR,CLR,0.00,WeatherDisplay:10.37,2013-02-07 08:50:00,
2013-02-07 08:55:00,31.1,14.6,30.03,SE,133,0.0,0.0,50,0.00,CLR,CLR,0.00,WeatherDisplay:10.37,2013-02-07 08:55:00,
2013-02-07 09:00:00,31.2,14.7,30.03,SE,133,0.0,0.0,50,0.00,CLR,CLR,0.00,WeatherDisplay:10.37,2013-02-07 09:00:00,
2013-02-07 09:05:00,31.5,14.9,30.03,SE,132,0.0,0.0,50,0.00,CLR,CLR,0.00,WeatherDisplay:10.37,2013-02-07 09:05:00,
2013-02-07 09:10:00,31.6,15.1,30.03,SE,131,0.0,0.0,50,0.00,CLR,CLR,0.00,WeatherDisplay:10.37,2013-02-07 09:10:00,
2013-02-07 09:20:00,32.0,15.9,30.03,SE,133,0.0,0.0,51,0.00,CLR,CLR,0.00,WeatherDisplay:10.37,2013-02-07 09:20:00,
2013-02-07 09:25:00,32.2,16.1,30.03,SSE,156,0.0,0.0,51,0.00,CLR,CLR,0.00,WeatherDisplay:10.37,2013-02-07 09:25:00,
2013-02-07 09:30:00,32.3,16.2,30.03,South,189,0.0,0.0,51,0.00,CLR,CLR,0.00,WeatherDisplay:10.37,2013-02-07 09:30:00,
2013-02-07 09:40:00,32.5,16.4,30.03,West,274,0.0,0.0,51,0.00,CLR,CLR,0.00,WeatherDisplay:10.37,2013-02-07 09:40:00,
2013-02-07 09:45:00,32.7,16.6,30.03,WNW,297,0.0,0.0,51,0.00,CLR,CLR,0.00,WeatherDisplay:10.37,2013-02-07 09:45:00,
2013-02-07 09:50:00,32.9,16.7,30.03,NW,305,0.0,0.0,51,0.00,CLR,CLR,0.00,WeatherDisplay:10.37,2013-02-07 09:50:00,
2013-02-07 09:55:00,32.9,16.8,30.03,WNW,296,1.0,3.0,51,0.00,CLR,CLR,0.00,WeatherDisplay:10.37,2013-02-07 09:55:00,
2013-02-07 10:00:00,33.1,17.3,30.03,WNW,287,0.0,0.0,52,0.00,CLR,CLR,0.00,WeatherDisplay:10.37,2013-02-07 10:00:00,
2013-02-07 10:05:00,33.3,17.5,30.03,WSW,245,0.0,0.0,52,0.00,CLR,CLR,0.00,WeatherDisplay:10.37,2013-02-07 10:05:00,
2013-02-07 10:10:00,33.4,17.7,30.03,SSW,211,0.0,0.0,52,0.00,CLR,CLR,0.00,WeatherDisplay:10.37,2013-02-07 10:10:00,
2013-02-07 10:20:00,33.8,18.0,30.03,SW,232,0.0,0.0,52,0.00,CLR,CLR,0.00,WeatherDisplay:10.37,2013-02-07 10:20:00,
2013-02-07 10:25:00,34.0,18.2,30.03,SW,232,0.0,0.0,52,0.00,CLR,CLR,0.00,WeatherDisplay:10.37,2013-02-07 10:25:00,
2013-02-07 10:35:00,34.3,18.5,30.03,SW,232,0.0,0.0,52,0.00,CLR,CLR,0.00,WeatherDisplay:10.37,2013-02-07 10:35:00,
2013-02-07 10:40:00,34.5,18.7,30.03,SW,232,0.0,0.0,52,0.00,CLR,CLR,0.00,WeatherDisplay:10.37,2013-02-07 10:40:00,
2013-02-07 10:50:00,34.9,19.0,30.03,SW,228,0.0,0.0,52,0.00,CLR,CLR,0.00,WeatherDisplay:10.37,2013-02-07 10:50:00,
2013-02-07 11:00:00,35.2,19.8,30.03,SSW,202,2.0,4.0,53,0.00,CLR,CLR,0.00,WeatherDisplay:10.37,2013-02-07 11:00:00,
2013-02-07 11:10:00,35.4,20.0,30.03,SW,229,0.0,4.0,53,0.00,CLR,CLR,0.00,WeatherDisplay:10.37,2013-02-07 11:10:00,
2013-02-07 11:15:00,35.6,19.7,30.03,SSW,208,0.0,0.0,52,0.00,CLR,CLR,0.00,WeatherDisplay:10.37,2013-02-07 11:15:00,
2013-02-07 11:20:00,35.8,19.9,30.03,South,185,0.0,0.0,52,0.00,CLR,CLR,0.00,WeatherDisplay:10.37,2013-02-07 11:20:00,
2013-02-07 11:30:00,36.0,20.0,30.03,WNW,292,0.0,0.0,52,0.00,CLR,CLR,0.00,WeatherDisplay:10.37,2013-02-07 11:30:00,
2013-02-07 11:40:00,36.3,20.4,30.03,WNW,288,0.0,0.0,52,0.00,CLR,CLR,0.00,WeatherDisplay:10.37,2013-02-07 11:40:00,
2013-02-07 11:45:00,36.6,20.6,30.03,WSW,248,0.0,4.0,52,0.00,CLR,CLR,0.00,WeatherDisplay:10.37,2013-02-07 11:45:00,
2013-02-07 11:55:00,37.0,20.5,30.03,SSW,207,0.0,3.0,51,0.00,CLR,CLR,0.00,WeatherDisplay:10.37,2013-02-07 11:55:00,
2013-02-07 12:00:00,37.0,20.6,30.03,WSW,244,1.0,5.0,51,0.00,CLR,CLR,0.00,WeatherDisplay:10.37,2013-02-07 12:00:00,
2013-02-07 12:10:00,37.0,20.1,30.00,SW,231,1.0,4.0,50,0.00,CLR,CLR,0.00,WeatherDisplay:10.37,2013-02-07 12:10:00,
2013-02-07 12:15:00,37.0,20.1,30.00,SSW,206,0.0,4.0,50,0.00,CLR,CLR,0.00,WeatherDisplay:10.37,2013-02-07 12:15:00,
2013-02-07 12:20:00,37.0,20.1,30.00,WSW,237,2.0,4.0,50,0.00,CLR,CLR,0.00,WeatherDisplay:10.37,2013-02-07 12:20:00,
2013-02-07 12:30:00,37.0,19.6,30.00,WNW,286,2.0,5.0,49,0.00,CLR,CLR,0.00,WeatherDisplay:10.37,2013-02-07 12:30:00,
2013-02-07 12:35:00,37.2,19.8,30.00,West,274,0.0,0.0,49,0.00,CLR,CLR,0.00,WeatherDisplay:10.37,2013-02-07 12:35:00,
2013-02-07 12:45:00,37.6,19.6,30.00,WNW,287,0.0,0.0,48,0.00,CLR,CLR,0.00,WeatherDisplay:10.37,2013-02-07 12:45:00,
2013-02-07 12:50:00,37.6,19.6,30.00,WNW,296,0.0,3.0,48,0.00,CLR,CLR,0.00,WeatherDisplay:10.37,2013-02-07 12:50:00,
2013-02-07 12:55:00,37.6,19.1,30.00,NW,307,0.0,0.0,47,0.00,CLR,CLR,0.00,WeatherDisplay:10.37,2013-02-07 12:55:00,
2013-02-07 13:00:00,37.6,19.1,30.00,WNW,301,0.0,0.0,47,0.00,CLR,CLR,0.00,WeatherDisplay:10.37,2013-02-07 13:00:00,
2013-02-07 13:05:00,37.8,19.3,30.00,WNW,295,3.0,4.0,47,0.00,CLR,CLR,0.00,WeatherDisplay:10.37,2013-02-07 13:05:00,
2013-02-07 13:10:00,37.8,18.8,30.00,WNW,301,2.0,4.0,46,0.00,CLR,CLR,0.00,WeatherDisplay:10.37,2013-02-07 13:10:00,
2013-02-07 13:20:00,37.6,18.1,30.00,WNW,292,0.0,5.0,45,0.00,CLR,CLR,0.00,WeatherDisplay:10.37,2013-02-07 13:20:00,
2013-02-07 13:25:00,37.6,18.2,30.00,WNW,291,3.0,6.0,45,0.00,CLR,CLR,0.00,WeatherDisplay:10.37,2013-02-07 13:25:00,
2013-02-07 13:30:00,37.8,17.8,30.00,WNW,298,3.0,4.0,44,0.00,CLR,CLR,0.00,WeatherDisplay:10.37,2013-02-07 13:30:00,
2013-02-07 13:35:00,37.8,17.8,30.00,NW,308,3.0,6.0,44,0.00,CLR,CLR,0.00,WeatherDisplay:10.37,2013-02-07 13:35:00,
2013-02-07 13:40:00,37.8,17.2,30.00,NW,310,0.0,4.0,43,0.00,CLR,CLR,0.00,WeatherDisplay:10.37,2013-02-07 13:40:00,
2013-02-07 13:50:00,37.8,16.7,30.00,NW,306,3.0,4.0,42,0.00,CLR,CLR,0.00,WeatherDisplay:10.37,2013-02-07 13:50:00,
2013-02-07 13:55:00,37.8,16.7,30.00,NW,310,0.0,4.0,42,0.00,CLR,CLR,0.00,WeatherDisplay:10.37,2013-02-07 13:55:00,
2013-02-07 14:00:00,37.9,16.9,30.00,NW,309,2.0,5.0,42,0.00,CLR,CLR,0.00,WeatherDisplay:10.37,2013-02-07 14:00:00,
2013-02-07 14:05:00,37.9,16.9,30.00,WNW,298,3.0,4.0,42,0.00,CLR,CLR,0.00,WeatherDisplay:10.37,2013-02-07 14:05:00,
2013-02-07 14:10:00,38.1,17.0,30.00,WNW,298,5.0,6.0,42,0.00,CLR,CLR,0.00,WeatherDisplay:10.37,2013-02-07 14:10:00,
2013-02-07 14:20:00,38.1,16.5,30.00,WNW,290,6.0,7.0,41,0.00,CLR,CLR,0.00,WeatherDisplay:10.37,2013-02-07 14:20:00,
2013-02-07 14:25:00,38.1,16.5,30.00,WNW,298,3.0,6.0,41,0.00,CLR,CLR,0.00,WeatherDisplay:10.37,2013-02-07 14:25:00,
2013-02-07 14:30:00,38.3,16.6,30.00,WNW,296,3.0,5.0,41,0.00,CLR,CLR,0.00,WeatherDisplay:10.37,2013-02-07 14:30:00,
2013-02-07 14:40:00,38.3,16.6,30.00,WNW,288,5.0,6.0,41,0.00,CLR,CLR,0.00,WeatherDisplay:10.37,2013-02-07 14:40:00,
2013-02-07 14:45:00,38.1,16.5,30.00,WNW,286,3.0,6.0,41,0.00,CLR,CLR,0.00,WeatherDisplay:10.37,2013-02-07 14:45:00,
2013-02-07 14:50:00,38.1,15.9,30.00,WNW,290,5.0,6.0,40,0.00,CLR,CLR,0.00,WeatherDisplay:10.37,2013-02-07 14:50:00,
2013-02-07 14:55:00,37.9,15.7,30.00,WNW,297,3.0,6.0,40,0.00,CLR,CLR,0.00,WeatherDisplay:10.37,2013-02-07 14:55:00,
2013-02-07 15:00:00,37.8,15.6,30.00,WNW,299,3.0,6.0,40,0.00,CLR,CLR,0.00,WeatherDisplay:10.37,2013-02-07 15:00:00,
2013-02-07 15:05:00,37.8,15.6,30.00,WNW,301,0.0,6.0,40,0.00,CLR,CLR,0.00,WeatherDisplay:10.37,2013-02-07 15:05:00,
2013-02-07 15:10:00,37.6,15.4,30.00,WNW,296,2.0,4.0,40,0.00,CLR,CLR,0.00,WeatherDisplay:10.37,2013-02-07 15:10:00,
2013-02-07 15:15:00,37.6,15.4,30.00,WNW,294,2.0,4.0,40,0.00,CLR,CLR,0.00,WeatherDisplay:10.37,2013-02-07 15:15:00,
2013-02-07 15:20:00,37.6,15.4,30.00,WNW,290,3.0,4.0,40,0.00,CLR,CLR,0.00,WeatherDisplay:10.37,2013-02-07 15:20:00,
2013-02-07 15:30:00,37.4,15.2,30.00,West,280,2.0,4.0,40,0.00,CLR,CLR,0.00,WeatherDisplay:10.37,2013-02-07 15:30:00,
2013-02-07 15:40:00,37.1,15.6,30.00,WNW,290,1.0,3.0,41,0.00,CLR,CLR,0.00,WeatherDisplay:10.37,2013-02-07 15:40:00,
2013-02-07 15:45:00,37.0,15.5,30.00,WNW,290,0.0,0.0,41,0.00,CLR,CLR,0.00,WeatherDisplay:10.37,2013-02-07 15:45:00,
2013-02-07 15:50:00,36.9,15.3,30.00,WNW,290,0.0,0.0,41,0.00,CLR,CLR,0.00,WeatherDisplay:10.37,2013-02-07 15:50:00,
2013-02-07 15:55:00,36.7,15.2,30.00,WNW,290,0.0,0.0,41,0.00,CLR,CLR,0.00,WeatherDisplay:10.37,2013-02-07 15:55:00,
2013-02-07 16:00:00,36.5,15.0,30.00,WNW,290,0.0,0.0,41,0.00,CLR,CLR,0.00,WeatherDisplay:10.37,2013-02-07 16:00:00,
2013-02-07 16:05:00,36.3,14.8,30.03,WNW,290,0.0,0.0,41,0.00,CLR,CLR,0.00,WeatherDisplay:10.37,2013-02-07 16:05:00,
2013-02-07 16:10:00,36.1,14.7,30.03,WNW,290,0.0,0.0,41,0.00,CLR,CLR,0.00,WeatherDisplay:10.37,2013-02-07 16:10:00,
2013-02-07 16:15:00,36.0,14.5,30.03,WNW,290,0.0,0.0,41,0.00,CLR,CLR,0.00,WeatherDisplay:10.37,2013-02-07 16:15:00,
2013-02-07 16:20:00,35.8,14.3,30.03,WNW,290,0.0,0.0,41,0.00,CLR,CLR,0.00,WeatherDisplay:10.37,2013-02-07 16:20:00,
2013-02-07 16:25:00,35.6,14.2,30.03,WNW,291,0.0,0.0,41,0.00,CLR,CLR,0.00,WeatherDisplay:10.37,2013-02-07 16:25:00,
2013-02-07 16:30:00,35.6,14.2,30.03,WNW,290,0.0,0.0,41,0.00,CLR,CLR,0.00,WeatherDisplay:10.37,2013-02-07 16:30:00,
2013-02-07 16:40:00,35.2,14.4,30.03,WNW,291,0.0,0.0,42,0.00,CLR,CLR,0.00,WeatherDisplay:10.37,2013-02-07 16:40:00,
2013-02-07 16:45:00,35.1,14.2,30.03,WNW,291,0.0,0.0,42,0.00,CLR,CLR,0.00,WeatherDisplay:10.37,2013-02-07 16:45:00,
2013-02-07 16:50:00,34.8,14.0,30.03,WNW,291,0.0,0.0,42,0.00,CLR,CLR,0.00,WeatherDisplay:10.37,2013-02-07 16:50:00,
2013-02-07 16:55:00,34.5,13.8,30.03,WNW,290,0.0,0.0,42,0.00,CLR,CLR,0.00,WeatherDisplay:10.37,2013-02-07 16:55:00,
2013-02-07 17:00:00,34.2,13.4,30.03,WNW,290,0.0,0.0,42,0.00,CLR,CLR,0.00,WeatherDisplay:10.37,2013-02-07 17:00:00,
2013-02-07 17:10:00,33.6,12.9,30.03,WNW,291,0.0,0.0,42,0.00,CLR,CLR,0.00,WeatherDisplay:10.37,2013-02-07 17:10:00,
2013-02-07 17:15:00,33.3,12.6,30.03,WNW,290,0.0,0.0,42,0.00,CLR,CLR,0.00,WeatherDisplay:10.37,2013-02-07 17:15:00,
2013-02-07 17:20:00,33.1,12.4,30.03,WNW,291,0.0,0.0,42,0.00,CLR,CLR,0.00,WeatherDisplay:10.37,2013-02-07 17:20:00,
2013-02-07 17:25:00,33.1,12.4,30.03,WNW,290,0.0,0.0,42,0.00,CLR,CLR,0.00,WeatherDisplay:10.37,2013-02-07 17:25:00,
2013-02-07 17:30:00,32.9,12.3,30.03,WNW,290,0.0,0.0,42,0.00,CLR,CLR,0.00,WeatherDisplay:10.37,2013-02-07 17:30:00,
2013-02-07 17:40:00,33.1,13.0,30.03,WNW,289,1.0,5.0,43,0.00,CLR,CLR,0.00,WeatherDisplay:10.37,2013-02-07 17:40:00,
2013-02-07 17:50:00,33.4,13.3,30.00,WNW,284,0.0,0.0,43,0.00,CLR,CLR,0.00,WeatherDisplay:10.37,2013-02-07 17:50:00,
2013-02-07 17:55:00,33.4,13.8,30.00,WNW,283,0.0,0.0,44,0.00,CLR,CLR,0.00,WeatherDisplay:10.37,2013-02-07 17:55:00,
2013-02-07 18:00:00,33.3,13.7,30.00,WNW,283,0.0,0.0,44,0.00,CLR,CLR,0.00,WeatherDisplay:10.37,2013-02-07 18:00:00,
2013-02-07 18:10:00,33.3,13.7,30.03,WNW,283,0.0,0.0,44,0.00,CLR,CLR,0.00,WeatherDisplay:10.37,2013-02-07 18:10:00,
2013-02-07 18:15:00,33.3,13.7,30.03,WNW,286,0.0,0.0,44,0.00,CLR,CLR,0.00,WeatherDisplay:10.37,2013-02-07 18:15:00,
2013-02-07 18:20:00,33.3,13.7,30.03,WNW,294,0.0,0.0,44,0.00,CLR,CLR,0.00,WeatherDisplay:10.37,2013-02-07 18:20:00,
2013-02-07 18:25:00,33.4,14.3,30.03,WNW,301,0.0,0.0,45,0.00,CLR,CLR,0.00,WeatherDisplay:10.37,2013-02-07 18:25:00,
2013-02-07 18:30:00,33.6,14.5,30.03,NW,308,0.0,0.0,45,0.00,CLR,CLR,0.00,WeatherDisplay:10.37,2013-02-07 18:30:00,
2013-02-07 18:40:00,33.6,14.5,30.03,NW,314,0.0,0.0,45,0.00,CLR,CLR,0.00,WeatherDisplay:10.37,2013-02-07 18:40:00,
2013-02-07 18:45:00,33.6,15.0,30.03,NW,313,0.0,0.0,46,0.00,CLR,CLR,0.00,WeatherDisplay:10.37,2013-02-07 18:45:00,
2013-02-07 18:50:00,33.6,15.0,30.03,NW,312,0.0,0.0,46,0.00,CLR,CLR,0.00,WeatherDisplay:10.37,2013-02-07 18:50:00,
2013-02-07 19:00:00,33.8,15.2,30.03,NW,313,0.0,0.0,46,0.00,CLR,CLR,0.00,WeatherDisplay:10.37,2013-02-07 19:00:00,
2013-02-07 19:05:00,33.8,15.2,30.03,NW,313,0.0,0.0,46,0.00,CLR,CLR,0.00,WeatherDisplay:10.37,2013-02-07 19:05:00,
2013-02-07 19:10:00,33.8,15.2,30.03,NW,313,0.0,0.0,46,0.00,CLR,CLR,0.00,WeatherDisplay:10.37,2013-02-07 19:10:00,
2013-02-07 19:20:00,33.8,15.2,30.03,NW,313,0.0,0.0,46,0.00,CLR,CLR,0.00,WeatherDisplay:10.37,2013-02-07 19:20:00,
2013-02-07 19:25:00,33.8,15.2,30.03,NW,313,0.0,0.0,46,0.00,CLR,CLR,0.00,WeatherDisplay:10.37,2013-02-07 19:25:00,
2013-02-07 19:30:00,33.8,15.2,30.03,NW,313,0.0,0.0,46,0.00,CLR,CLR,0.00,WeatherDisplay:10.37,2013-02-07 19:30:00,
2013-02-07 19:35:00,33.6,15.5,30.03,NW,313,0.0,0.0,47,0.00,CLR,CLR,0.00,WeatherDisplay:10.37,2013-02-07 19:35:00,
2013-02-07 19:40:00,33.6,15.5,30.03,NW,313,0.0,0.0,47,0.00,CLR,CLR,0.00,WeatherDisplay:10.37,2013-02-07 19:40:00,
2013-02-07 19:50:00,33.6,15.5,30.03,NW,317,0.0,0.0,47,0.00,CLR,CLR,0.00,WeatherDisplay:10.37,2013-02-07 19:50:00,
2013-02-07 19:55:00,33.6,15.5,30.03,NW,322,0.0,0.0,47,0.00,CLR,CLR,0.00,WeatherDisplay:10.37,2013-02-07 19:55:00,
2013-02-07 20:00:00,33.6,15.5,30.03,NW,323,0.0,0.0,47,0.00,CLR,CLR,0.00,WeatherDisplay:10.37,2013-02-07 20:00:00,
2013-02-07 20:05:00,33.6,16.0,30.03,NW,323,0.0,0.0,48,0.00,CLR,CLR,0.00,WeatherDisplay:10.37,2013-02-07 20:05:00,
2013-02-07 20:10:00,33.6,16.0,30.03,NW,323,0.0,0.0,48,0.00,CLR,CLR,0.00,WeatherDisplay:10.37,2013-02-07 20:10:00,
2013-02-07 20:15:00,33.6,16.0,30.03,NW,323,0.0,0.0,48,0.00,CLR,CLR,0.00,WeatherDisplay:10.37,2013-02-07 20:15:00,
2013-02-07 20:20:00,33.6,16.0,30.03,NW,323,0.0,0.0,48,0.00,CLR,CLR,0.00,WeatherDisplay:10.37,2013-02-07 20:20:00,
2013-02-07 20:25:00,33.6,16.0,30.03,NW,323,0.0,0.0,48,0.00,CLR,CLR,0.00,WeatherDisplay:10.37,2013-02-07 20:25:00,
2013-02-07 20:30:00,33.6,16.0,30.03,NW,323,0.0,0.0,48,0.00,CLR,CLR,0.00,WeatherDisplay:10.37,2013-02-07 20:30:00,
2013-02-07 20:35:00,33.6,16.0,30.03,NW,323,0.0,0.0,48,0.00,CLR,CLR,0.00,WeatherDisplay:10.37,2013-02-07 20:35:00,
2013-02-07 20:40:00,33.6,16.0,30.03,NW,323,0.0,0.0,48,0.00,CLR,CLR,0.00,WeatherDisplay:10.37,2013-02-07 20:40:00,
2013-02-07 20:50:00,33.4,15.8,30.06,WNW,287,0.0,0.0,48,0.00,CLR,CLR,0.00,WeatherDisplay:10.37,2013-02-07 20:50:00,
2013-02-07 20:55:00,33.4,15.8,30.06,WSW,253,0.0,0.0,48,0.00,CLR,CLR,0.00,WeatherDisplay:10.37,2013-02-07 20:55:00,
2013-02-07 21:00:00,33.6,16.5,30.06,West,269,0.0,4.0,49,0.00,CLR,CLR,0.00,WeatherDisplay:10.37,2013-02-07 21:00:00,
2013-02-07 21:05:00,33.7,16.6,30.03,WNW,287,0.0,3.0,49,0.00,CLR,CLR,0.00,WeatherDisplay:10.37,2013-02-07 21:05:00,
2013-02-07 21:10:00,33.8,16.6,30.03,WNW,298,0.0,3.0,49,0.00,CLR,CLR,0.00,WeatherDisplay:10.37,2013-02-07 21:10:00,
2013-02-07 21:20:00,34.0,16.8,30.03,West,269,0.0,0.0,49,0.00,CLR,CLR,0.00,WeatherDisplay:10.37,2013-02-07 21:20:00,
2013-02-07 21:25:00,33.8,16.6,30.03,West,260,0.0,0.0,49,0.00,CLR,CLR,0.00,WeatherDisplay:10.37,2013-02-07 21:25:00,
2013-02-07 21:30:00,33.8,16.6,30.03,WSW,251,0.0,0.0,49,0.00,CLR,CLR,0.00,WeatherDisplay:10.37,2013-02-07 21:30:00,
2013-02-07 21:35:00,33.8,16.6,30.03,SW,229,0.0,0.0,49,0.00,CLR,CLR,0.00,WeatherDisplay:10.37,2013-02-07 21:35:00,
2013-02-07 21:40:00,33.8,16.6,30.03,SW,216,0.0,0.0,49,0.00,CLR,CLR,0.00,WeatherDisplay:10.37,2013-02-07 21:40:00,
2013-02-07 21:50:00,33.8,17.1,30.03,SW,235,0.0,0.0,50,0.00,CLR,CLR,0.00,WeatherDisplay:10.37,2013-02-07 21:50:00,
2013-02-07 21:55:00,34.0,17.3,30.03,WSW,258,0.0,0.0,50,0.00,CLR,CLR,0.00,WeatherDisplay:10.37,2013-02-07 21:55:00,
2013-02-07 22:00:00,34.0,17.3,30.03,West,268,0.0,0.0,50,0.00,CLR,CLR,0.00,WeatherDisplay:10.37,2013-02-07 22:00:00,
2013-02-07 22:05:00,34.0,17.3,30.06,West,272,0.0,0.0,50,0.00,CLR,CLR,0.00,WeatherDisplay:10.37,2013-02-07 22:05:00,
2013-02-07 22:10:00,34.0,17.3,30.06,West,272,0.0,0.0,50,0.00,CLR,CLR,0.00,WeatherDisplay:10.37,2013-02-07 22:10:00,
2013-02-07 22:15:00,34.0,17.3,30.06,West,272,0.0,0.0,50,0.00,CLR,CLR,0.00,WeatherDisplay:10.37,2013-02-07 22:15:00,
2013-02-07 22:20:00,34.0,17.3,30.03,West,272,0.0,0.0,50,0.00,CLR,CLR,0.00,WeatherDisplay:10.37,2013-02-07 22:20:00,
2013-02-07 22:25:00,34.0,17.3,30.03,West,272,0.0,0.0,50,0.00,CLR,CLR,0.00,WeatherDisplay:10.37,2013-02-07 22:25:00,
2013-02-07 22:30:00,34.0,17.3,30.03,West,272,0.0,0.0,50,0.00,CLR,CLR,0.00,WeatherDisplay:10.37,2013-02-07 22:30:00,
2013-02-07 22:35:00,34.2,17.4,30.06,West,272,0.0,0.0,50,0.00,CLR,CLR,0.00,WeatherDisplay:10.37,2013-02-07 22:35:00,
2013-02-07 22:40:00,34.2,17.4,30.06,West,272,0.0,0.0,50,0.00,CLR,CLR,0.00,WeatherDisplay:10.37,2013-02-07 22:40:00,
2013-02-07 22:45:00,34.2,17.4,30.06,West,272,0.0,0.0,50,0.00,CLR,CLR,0.00,WeatherDisplay:10.37,2013-02-07 22:45:00,
2013-02-07 22:50:00,34.2,17.4,30.06,West,272,0.0,0.0,50,0.00,CLR,CLR,0.00,WeatherDisplay:10.37,2013-02-07 22:50:00,
2013-02-07 22:55:00,34.2,17.4,30.06,West,272,0.0,0.0,50,0.00,CLR,CLR,0.00,WeatherDisplay:10.37,2013-02-07 22:55:00,
2013-02-07 23:00:00,34.3,18.1,30.06,West,272,0.0,0.0,51,0.00,CLR,CLR,0.00,WeatherDisplay:10.37,2013-02-07 23:00:00,
2013-02-07 23:05:00,34.3,18.1,30.06,West,274,0.0,0.0,51,0.00,CLR,CLR,0.00,WeatherDisplay:10.37,2013-02-07 23:05:00,
2013-02-07 23:10:00,34.3,18.1,30.06,West,277,0.0,0.0,51,0.00,CLR,CLR,0.00,WeatherDisplay:10.37,2013-02-07 23:10:00,
2013-02-07 23:15:00,34.3,18.1,30.06,West,277,0.0,0.0,51,0.00,CLR,CLR,0.00,WeatherDisplay:10.37,2013-02-07 23:15:00,
2013-02-07 23:20:00,34.2,17.9,30.06,West,277,0.0,0.0,51,0.00,CLR,CLR,0.00,WeatherDisplay:10.37,2013-02-07 23:20:00,
2013-02-07 23:30:00,34.0,17.7,30.06,West,277,0.0,0.0,51,0.00,CLR,CLR,0.00,WeatherDisplay:10.37,2013-02-07 23:30:00,
2013-02-07 23:35:00,34.0,17.7,30.06,West,277,0.0,0.0,51,0.00,CLR,CLR,0.00,WeatherDisplay:10.37,2013-02-07 23:35:00,
2013-02-07 23:40:00,33.8,17.6,30.06,West,277,0.0,0.0,51,0.00,CLR,CLR,0.00,WeatherDisplay:10.37,2013-02-07 23:40:00,
2013-02-07 23:45:00,33.8,17.6,30.06,West,266,0.0,3.0,51,0.00,CLR,CLR,0.00,WeatherDisplay:10.37,2013-02-07 23:45:00,
2013-02-07 23:50:00,33.8,17.6,30.06,SW,236,0.0,0.0,51,0.00,CLR,CLR,0.00,WeatherDisplay:10.37,2013-02-07 23:50:00,
2013-02-07 23:55:00,34.0,18.2,30.06,SW,215,0.0,5.0,52,0.00,CLR,CLR,0.00,WeatherDisplay:10.37,2013-02-07 23:55:00,